Sousse, Tunisia
Current Conditions -  °F | °C
As of 4:00 PM on Saturday 25 Oct 2014 (Local Time) from DTMB Reporting Station
Few Clouds Few Clouds  
Wind Chill: 75°   Ceiling: Unl
Heat Index: 75°   Visibility: 6mi
Dew Point: 54°   Wind: 5mph
Humidity: 47%   Direction: 30°NNE
Pressure: 30.03"   Gusts: NA
Location:  35.82°N, 10.63°E
Report Text: DTMB 251500Z 03004KT 9999 FEW020 24/12 Q1017 NOSIG
Loading
Personal Weather Stations






























Interactive Weather Map New forecast layout! Learn more

10-Day Weather Forecast

Advertisements
Track Severe Weather on mobile